createdAt,value
2023-02-04T00:02:25.774Z,83.08
2023-02-04T00:04:52.533Z,82.64
2023-02-04T00:07:18.901Z,82.51
2023-02-04T00:09:49.392Z,82.50
2023-02-04T00:12:16.876Z,82.60
2023-02-04T00:14:43.265Z,82.65
2023-02-04T00:17:12.165Z,82.70
2023-02-04T00:19:39.687Z,82.61
2023-02-04T00:22:07.282Z,82.52
2023-02-04T00:24:34.779Z,82.39
2023-02-04T00:27:01.749Z,82.36
2023-02-04T00:29:28.448Z,82.38
2023-02-04T00:31:55.311Z,82.20
2023-02-04T00:34:21.744Z,82.03
2023-02-04T00:36:48.804Z,82.01
2023-02-04T00:39:16.460Z,81.99
2023-02-04T00:41:42.787Z,82.12
2023-02-04T00:44:09.134Z,82.23
2023-02-04T00:46:35.492Z,82.34
2023-02-04T00:49:05.925Z,82.12
2023-02-04T00:51:32.373Z,82.08
2023-02-04T00:53:58.740Z,82.08
2023-02-04T00:56:25.249Z,82.14
2023-02-04T00:58:51.614Z,82.29
2023-02-04T01:01:18.002Z,82.28
2023-02-04T01:03:44.432Z,82.26
2023-02-04T01:06:11.457Z,82.30
2023-02-04T01:08:37.797Z,82.35
2023-02-04T01:11:04.594Z,82.43
2023-02-04T01:13:31.011Z,82.38
2023-02-04T01:15:57.498Z,82.44
2023-02-04T01:18:23.976Z,82.60
2023-02-04T01:20:50.478Z,82.17
2023-02-04T01:23:16.895Z,81.43
2023-02-04T01:25:43.334Z,80.40
2023-02-04T01:28:09.890Z,79.85
2023-02-04T01:30:36.581Z,78.72
2023-02-04T01:33:03.008Z,78.58
2023-02-04T01:35:29.328Z,78.23
2023-02-04T01:37:55.697Z,78.11
2023-02-04T01:40:22.208Z,77.90
2023-02-04T01:42:48.849Z,77.72
2023-02-04T01:45:15.230Z,77.69
2023-02-04T01:47:42.035Z,77.56
2023-02-04T01:50:12.885Z,77.52
2023-02-04T01:52:40.363Z,77.22
2023-02-04T01:55:21.283Z,77.00
2023-02-04T01:57:50.132Z,76.67
2023-02-04T02:00:22.011Z,76.75
2023-02-04T02:02:50.634Z,76.32
2023-02-04T02:05:43.377Z,76.06
2023-02-04T02:08:10.621Z,75.77
2023-02-04T02:10:39.846Z,75.92
2023-02-04T02:13:08.158Z,76.07
2023-02-04T02:15:38.924Z,76.02
2023-02-04T02:18:05.968Z,75.64
2023-02-04T02:20:32.942Z,75.59
2023-02-04T02:23:26.318Z,75.15
2023-02-04T02:25:52.839Z,75.21
2023-02-04T02:28:22.207Z,74.65
2023-02-04T02:30:49.737Z,74.55
2023-02-04T02:33:19.044Z,74.36
2023-02-04T02:35:49.900Z,74.32
2023-02-04T02:38:18.660Z,74.11
2023-02-04T02:40:46.235Z,73.89
2023-02-04T02:43:20.845Z,73.56
2023-02-04T02:45:48.169Z,73.56
2023-02-04T02:48:14.640Z,73.56
2023-02-04T02:50:41.745Z,73.35
2023-02-04T02:53:13.057Z,73.31
2023-02-04T02:55:39.843Z,73.31
2023-02-04T02:58:15.594Z,73.40
2023-02-04T03:00:42.008Z,73.21
2023-02-04T03:03:17.103Z,73.08
2023-02-04T03:05:46.611Z,72.99
2023-02-04T03:08:14.736Z,72.80
2023-02-04T03:10:41.934Z,72.98
2023-02-04T03:13:09.579Z,72.78
2023-02-04T03:15:36.769Z,73.02
2023-02-04T03:18:03.215Z,72.83
2023-02-04T03:20:31.182Z,72.46
2023-02-04T03:22:58.431Z,72.65
2023-02-04T03:25:27.518Z,72.44
2023-02-04T03:27:57.349Z,72.32
2023-02-04T03:30:25.132Z,72.04
2023-02-04T03:32:51.852Z,72.10
2023-02-04T03:35:19.082Z,72.11
2023-02-04T03:37:45.597Z,72.06
2023-02-04T03:40:12.969Z,71.73
2023-02-04T03:42:39.323Z,71.50
2023-02-04T03:45:06.113Z,71.44
2023-02-04T03:47:32.624Z,71.60
2023-02-04T03:49:59.468Z,71.46
2023-02-04T03:52:25.876Z,71.74
2023-02-04T03:54:52.326Z,71.81
2023-02-04T03:57:18.693Z,71.54
2023-02-04T03:59:45.139Z,71.49
2023-02-04T04:02:11.458Z,71.69
2023-02-04T04:04:37.853Z,71.38
2023-02-04T04:07:04.284Z,71.50
2023-02-04T04:09:30.626Z,71.36
2023-02-04T04:11:57.019Z,71.29
2023-02-04T04:14:23.411Z,71.12
2023-02-04T04:16:49.808Z,71.07
2023-02-04T04:19:16.335Z,70.85
2023-02-04T04:21:42.649Z,70.79
2023-02-04T04:24:09.018Z,70.51
2023-02-04T04:26:35.353Z,70.34
2023-02-04T04:29:01.686Z,70.17
2023-02-04T04:31:28.140Z,69.90
2023-02-04T04:33:54.616Z,70.09
2023-02-04T04:36:20.959Z,70.02
2023-02-04T04:38:47.324Z,70.02
2023-02-04T04:41:13.726Z,69.77
2023-02-04T04:43:40.084Z,69.67
2023-02-04T04:46:06.384Z,69.71
2023-02-04T04:48:32.717Z,69.70
2023-02-04T04:50:59.210Z,69.59
2023-02-04T04:53:25.664Z,69.52
2023-02-04T04:55:51.998Z,69.49
2023-02-04T04:58:18.343Z,69.98
2023-02-04T05:00:44.759Z,70.19
2023-02-04T05:03:11.188Z,70.33
2023-02-04T05:05:40.249Z,70.47
2023-02-04T05:08:12.752Z,70.68
2023-02-04T05:10:40.039Z,70.95
2023-02-04T05:13:06.825Z,70.85
2023-02-04T05:15:33.571Z,70.87
2023-02-04T05:18:00.236Z,70.93
2023-02-04T05:20:26.705Z,70.99
2023-02-04T05:22:55.280Z,71.11
2023-02-04T05:25:22.637Z,71.42
2023-02-04T05:27:49.321Z,71.35
2023-02-04T05:30:15.763Z,71.24
2023-02-04T05:32:42.260Z,71.24
2023-02-04T05:35:09.027Z,71.31
2023-02-04T05:37:35.394Z,71.29
2023-02-04T05:40:01.931Z,71.51
2023-02-04T05:42:28.232Z,71.43
2023-02-04T05:44:54.543Z,71.26
2023-02-04T05:47:20.857Z,71.39
2023-02-04T05:49:47.177Z,71.32
2023-02-04T05:52:13.567Z,71.16
2023-02-04T05:54:39.957Z,71.14
2023-02-04T05:57:06.754Z,71.11
2023-02-04T05:59:33.157Z,70.95
2023-02-04T06:01:59.614Z,70.93
2023-02-04T06:04:26.005Z,71.04
2023-02-04T06:06:52.412Z,70.98
2023-02-04T06:09:18.890Z,71.11
2023-02-04T06:11:45.305Z,71.23
2023-02-04T06:14:11.688Z,71.28
2023-02-04T06:16:38.113Z,71.60
2023-02-04T06:19:04.764Z,71.56
2023-02-04T06:21:31.204Z,71.56
2023-02-04T06:23:57.558Z,71.66
2023-02-04T06:26:23.953Z,71.63
2023-02-04T06:28:50.422Z,71.71
2023-02-04T06:31:16.817Z,71.72
2023-02-04T06:33:43.363Z,71.81
2023-02-04T06:36:09.725Z,71.79
2023-02-04T06:38:36.039Z,71.80
2023-02-04T06:41:02.436Z,71.60
2023-02-04T06:43:28.793Z,71.40
2023-02-04T06:45:55.297Z,71.26
2023-02-04T06:48:21.916Z,71.16
2023-02-04T06:50:48.700Z,71.02
2023-02-04T06:53:15.099Z,70.89
2023-02-04T06:55:41.668Z,70.90
2023-02-04T06:58:08.911Z,70.92
2023-02-04T07:00:35.488Z,70.79
2023-02-04T07:03:01.950Z,70.79
2023-02-04T07:05:28.345Z,70.75
2023-02-04T07:07:54.695Z,70.83
2023-02-04T07:13:03.737Z,70.71
2023-02-04T07:15:31.868Z,71.13
2023-02-04T07:18:00.384Z,72.00
2023-02-04T07:20:28.200Z,72.71
2023-02-04T07:22:55.948Z,72.73
2023-02-04T07:25:23.854Z,72.58
2023-02-04T07:27:51.674Z,73.21
2023-02-04T07:30:19.548Z,73.95
2023-02-04T07:32:47.322Z,75.17
2023-02-04T07:35:17.876Z,75.78
2023-02-04T07:37:45.691Z,76.20
2023-02-04T07:40:13.726Z,76.13
2023-02-04T07:42:41.457Z,75.63
2023-02-04T07:45:12.036Z,76.46
2023-02-04T07:47:39.721Z,76.76
2023-02-04T07:50:07.683Z,77.11
2023-02-04T07:52:35.516Z,76.59
2023-02-04T07:55:03.671Z,76.57
2023-02-04T07:57:31.690Z,76.98
2023-02-04T07:59:59.518Z,77.31
2023-02-04T08:02:27.588Z,77.28
2023-02-04T08:04:55.485Z,76.59
2023-02-04T08:07:23.181Z,75.30
2023-02-04T08:09:50.959Z,73.46
2023-02-04T08:12:18.723Z,71.86
2023-02-04T08:14:46.467Z,69.63
2023-02-04T08:17:14.169Z,68.85
2023-02-04T08:19:42.396Z,68.17
2023-02-04T08:22:11.657Z,65.01
2023-02-04T08:24:39.474Z,63.71
2023-02-04T08:27:07.338Z,63.33
2023-02-04T08:29:35.109Z,63.25
2023-02-04T08:32:04.208Z,61.32
2023-02-04T08:34:32.270Z,60.04
2023-02-04T08:37:00.015Z,58.19
2023-02-04T08:39:27.786Z,58.41
2023-02-04T08:41:55.528Z,58.11
2023-02-04T08:44:23.235Z,58.40
2023-02-04T08:46:51.122Z,59.34
2023-02-04T08:49:18.881Z,59.24
2023-02-04T08:51:46.683Z,60.02
2023-02-04T08:54:14.373Z,60.05
2023-02-04T08:56:42.100Z,60.18
2023-02-04T08:59:09.902Z,60.38
2023-02-04T09:01:38.040Z,60.90
2023-02-04T09:04:05.747Z,62.67
2023-02-04T09:06:33.577Z,62.16
2023-02-04T09:09:01.689Z,59.52
2023-02-04T09:11:29.612Z,56.49
2023-02-04T09:13:57.517Z,56.17
2023-02-04T09:16:25.433Z,56.94
2023-02-04T09:18:53.323Z,58.02
2023-02-04T09:21:21.096Z,57.06
2023-02-04T09:23:48.831Z,57.68
2023-02-04T09:26:16.610Z,57.74
2023-02-04T09:28:44.532Z,57.99
2023-02-04T09:31:12.384Z,57.69
2023-02-04T09:33:40.809Z,57.43
2023-02-04T09:36:09.981Z,57.72
2023-02-04T09:38:37.944Z,57.31
2023-02-04T09:41:08.517Z,55.73
2023-02-04T09:43:40.420Z,55.41
2023-02-04T09:46:18.173Z,56.91
2023-02-04T09:48:46.132Z,57.30
2023-02-04T09:51:19.246Z,55.95
2023-02-04T09:53:48.153Z,55.62
2023-02-04T09:56:17.184Z,55.78
2023-02-04T09:58:44.963Z,55.62
2023-02-04T10:01:18.969Z,55.86
2023-02-04T10:03:51.340Z,56.92
2023-02-04T10:06:21.310Z,56.86
2023-02-04T10:08:51.169Z,57.48
2023-02-04T10:11:21.317Z,57.89
2023-02-04T10:13:51.696Z,57.78
2023-02-04T10:16:23.767Z,58.12
2023-02-04T10:18:51.560Z,58.83
2023-02-04T10:21:24.522Z,59.35
2023-02-04T10:23:55.870Z,59.42
2023-02-04T10:26:27.360Z,59.42
2023-02-04T10:28:59.916Z,58.60
2023-02-04T10:31:30.262Z,58.35
2023-02-04T10:34:04.237Z,57.57
2023-02-04T10:36:32.076Z,57.13
2023-02-04T10:39:23.819Z,56.63
2023-02-04T10:41:56.875Z,56.90
2023-02-04T10:44:33.561Z,56.85
2023-02-04T10:47:15.281Z,56.01
2023-02-04T10:49:53.257Z,56.45
2023-02-04T10:52:23.220Z,56.51
2023-02-04T10:54:51.250Z,56.65
2023-02-04T10:57:28.472Z,56.23
2023-02-04T11:00:00.096Z,56.50
2023-02-04T11:02:46.098Z,56.09
2023-02-04T11:05:20.714Z,56.14
2023-02-04T11:07:49.638Z,55.99
2023-02-04T11:10:24.232Z,56.47
2023-02-04T11:12:55.016Z,57.18
2023-02-04T11:15:47.980Z,57.56
2023-02-04T11:18:20.546Z,58.33
2023-02-04T11:20:50.765Z,59.40
2023-02-04T11:23:27.314Z,60.33
2023-02-04T11:26:10.224Z,61.11
2023-02-04T11:28:41.176Z,61.49
2023-02-04T11:31:29.580Z,61.59
2023-02-04T11:34:15.951Z,61.93
2023-02-04T11:37:02.006Z,61.89
2023-02-04T11:39:37.450Z,61.80
2023-02-04T11:42:15.092Z,61.44
2023-02-04T11:44:48.180Z,61.26
2023-02-04T11:47:16.023Z,61.60
2023-02-04T11:49:47.077Z,61.56
2023-02-04T11:52:14.804Z,61.60
2023-02-04T11:54:42.500Z,61.64
2023-02-04T11:57:12.159Z,62.02
2023-02-04T11:59:40.153Z,62.18
2023-02-04T12:02:23.989Z,62.03
2023-02-04T12:05:08.354Z,61.16
2023-02-04T12:07:36.378Z,61.46
2023-02-04T12:10:33.649Z,61.76
2023-02-04T12:13:13.664Z,62.87
2023-02-04T12:15:41.513Z,61.61
2023-02-04T12:18:14.895Z,59.37
2023-02-04T12:20:42.582Z,58.16
2023-02-04T12:23:10.313Z,59.44
2023-02-04T12:25:38.030Z,60.86
2023-02-04T12:28:05.785Z,61.88
2023-02-04T12:30:33.528Z,63.09
2023-02-04T12:33:01.263Z,63.21
2023-02-04T12:35:29.018Z,62.38
2023-02-04T12:37:57.855Z,61.77
2023-02-04T12:40:25.724Z,60.36
2023-02-04T12:42:53.695Z,59.86
2023-02-04T12:45:21.466Z,60.02
2023-02-04T12:47:49.342Z,59.80
2023-02-04T12:50:24.631Z,59.98
2023-02-04T12:52:54.270Z,60.31
2023-02-04T12:55:23.489Z,60.45
2023-02-04T12:57:51.392Z,60.49
2023-02-04T13:00:20.889Z,60.89
2023-02-04T13:02:49.373Z,61.35
2023-02-04T13:05:18.500Z,61.47
2023-02-04T13:07:46.747Z,61.57
2023-02-04T13:10:15.005Z,61.48
2023-02-04T13:12:42.834Z,62.09
2023-02-04T13:15:11.182Z,61.94
2023-02-04T13:17:38.942Z,62.53
2023-02-04T13:20:07.823Z,63.65
2023-02-04T13:22:35.603Z,64.27
2023-02-04T13:25:04.264Z,64.05
2023-02-04T13:27:32.479Z,64.91
2023-02-04T13:30:00.271Z,65.21
2023-02-04T13:32:28.115Z,64.95
2023-02-04T13:34:55.809Z,64.49
2023-02-04T13:37:23.673Z,64.85
2023-02-04T13:39:51.423Z,64.94
2023-02-04T13:42:19.245Z,65.31
2023-02-04T13:44:47.052Z,64.11
2023-02-04T13:47:14.862Z,62.48
2023-02-04T13:49:42.622Z,62.03
2023-02-04T13:52:10.318Z,61.30
2023-02-04T13:54:38.013Z,60.83
2023-02-04T13:57:06.546Z,60.46
2023-02-04T13:59:34.273Z,61.32
2023-02-04T14:02:02.519Z,61.67
2023-02-04T14:04:30.222Z,60.65
2023-02-04T14:06:58.026Z,59.79
2023-02-04T14:09:25.729Z,59.10
2023-02-04T14:11:53.452Z,60.73
2023-02-04T14:14:21.512Z,63.15
2023-02-04T14:16:49.325Z,63.75
2023-02-04T14:19:17.107Z,63.24
2023-02-04T14:21:46.491Z,63.31
2023-02-04T14:24:14.205Z,61.11
2023-02-04T14:26:41.895Z,60.16
2023-02-04T14:29:11.154Z,59.45
2023-02-04T14:31:39.004Z,59.30
2023-02-04T14:34:06.763Z,60.72
2023-02-04T14:36:34.627Z,61.87
2023-02-04T14:39:02.357Z,64.09
2023-02-04T14:41:31.454Z,64.04
2023-02-04T14:43:59.193Z,63.49
2023-02-04T14:46:26.994Z,62.55
2023-02-04T14:48:54.974Z,61.90
2023-02-04T14:51:22.663Z,61.35
2023-02-04T14:53:50.496Z,61.77
2023-02-04T14:56:18.343Z,62.13
2023-02-04T14:58:46.092Z,62.48
2023-02-04T15:01:14.140Z,63.35
2023-02-04T15:03:41.907Z,64.45
2023-02-04T15:06:09.797Z,65.15
2023-02-04T15:08:37.662Z,65.76
2023-02-04T15:11:05.403Z,65.15
2023-02-04T15:13:33.127Z,65.00
2023-02-04T15:16:00.935Z,65.07
2023-02-04T15:18:29.141Z,65.03
2023-02-04T15:20:57.052Z,64.72
2023-02-04T15:23:24.815Z,65.17
2023-02-04T15:25:57.305Z,65.94
2023-02-04T15:28:25.340Z,66.78
2023-02-04T15:30:53.554Z,67.36
2023-02-04T15:33:21.350Z,67.85
2023-02-04T15:35:49.154Z,68.10
2023-02-04T15:38:16.893Z,67.66
2023-02-04T15:40:44.646Z,67.97
2023-02-04T15:43:12.388Z,68.47
2023-02-04T15:45:43.744Z,69.06
2023-02-04T15:48:12.050Z,69.54
2023-02-04T15:50:40.124Z,69.83
2023-02-04T15:53:07.848Z,69.27
2023-02-04T15:55:35.833Z,69.37
2023-02-04T15:58:03.710Z,69.15
2023-02-04T16:00:32.839Z,69.38
2023-02-04T16:03:01.180Z,70.39
2023-02-04T16:05:29.085Z,70.09
2023-02-04T16:07:57.150Z,67.72
2023-02-04T16:10:25.252Z,66.52
2023-02-04T16:12:55.037Z,65.42
2023-02-04T16:15:22.960Z,64.00
2023-02-04T16:17:51.267Z,64.20
2023-02-04T16:20:19.184Z,63.91
2023-02-04T16:22:47.122Z,63.88
2023-02-04T16:25:15.211Z,63.91
2023-02-04T16:27:43.007Z,63.98
2023-02-04T16:30:12.239Z,63.96
2023-02-04T16:32:40.004Z,64.12
2023-02-04T16:35:08.556Z,64.13
2023-02-04T16:37:37.732Z,64.00
2023-02-04T16:40:06.285Z,64.03
2023-02-04T16:42:34.040Z,64.09
2023-02-04T16:45:01.834Z,64.15
2023-02-04T16:47:30.026Z,64.21
2023-02-04T16:50:01.035Z,64.07
2023-02-04T16:52:29.126Z,63.80
2023-02-04T16:54:57.977Z,63.84
2023-02-04T16:57:25.960Z,64.23
2023-02-04T16:59:53.722Z,64.33
2023-02-04T17:02:22.743Z,64.71
2023-02-04T17:04:50.799Z,65.05
2023-02-04T17:07:18.505Z,65.35
2023-02-04T17:09:46.220Z,65.42
2023-02-04T17:12:13.927Z,65.48
2023-02-04T17:14:41.680Z,65.92
2023-02-04T17:17:09.460Z,66.05
2023-02-04T17:19:37.258Z,65.36
2023-02-04T17:22:05.514Z,65.71
2023-02-04T17:24:33.232Z,67.30
2023-02-04T17:27:03.299Z,65.75
2023-02-04T17:29:31.016Z,65.58
2023-02-04T17:31:58.768Z,66.02
2023-02-04T17:34:26.564Z,65.36
2023-02-04T17:36:54.399Z,64.26
2023-02-04T17:39:22.456Z,64.31
2023-02-04T17:41:50.338Z,64.82
2023-02-04T17:44:20.241Z,63.13
2023-02-04T17:46:48.056Z,61.80
2023-02-04T17:49:16.162Z,60.52
2023-02-04T17:51:43.918Z,60.35
2023-02-04T17:54:14.130Z,60.32
2023-02-04T17:56:41.939Z,60.30
2023-02-04T17:59:11.186Z,60.16
2023-02-04T18:01:41.533Z,60.14
2023-02-04T18:04:13.785Z,60.33
2023-02-04T18:06:41.603Z,60.21
2023-02-04T18:09:17.889Z,60.33
2023-02-04T18:11:46.024Z,60.00
2023-02-04T18:14:26.629Z,59.93
2023-02-04T18:16:58.369Z,60.59
2023-02-04T18:19:30.869Z,61.40
2023-02-04T18:21:59.291Z,61.50
2023-02-04T18:24:36.689Z,61.76
2023-02-04T18:27:25.964Z,62.56
2023-02-04T18:29:55.569Z,63.04
2023-02-04T18:32:37.923Z,63.60
2023-02-04T18:35:34.426Z,64.77
2023-02-04T18:38:02.294Z,64.20
2023-02-04T18:40:31.354Z,64.41
2023-02-04T18:43:08.161Z,64.19
2023-02-04T18:45:36.331Z,64.06
2023-02-04T18:48:19.545Z,63.94
2023-02-04T18:50:49.683Z,62.99
2023-02-04T18:53:26.568Z,62.45
2023-02-04T18:55:59.684Z,62.65
2023-02-04T18:58:34.179Z,63.33
2023-02-04T19:01:09.498Z,64.13
2023-02-04T19:03:51.339Z,64.61
2023-02-04T19:06:25.430Z,65.19
2023-02-04T19:08:56.964Z,65.96
2023-02-04T19:11:33.814Z,66.86
2023-02-04T19:14:02.962Z,68.22
2023-02-04T19:16:36.736Z,69.01
2023-02-04T19:19:23.279Z,69.75
2023-02-04T19:21:51.840Z,70.92
2023-02-04T19:24:22.331Z,71.69
2023-02-04T19:27:01.757Z,71.94
2023-02-04T19:29:42.420Z,70.26
2023-02-04T19:32:19.282Z,69.19
2023-02-04T19:34:47.173Z,68.20
2023-02-04T19:37:24.573Z,68.86
2023-02-04T19:39:54.547Z,69.50
2023-02-04T19:42:22.127Z,69.03
2023-02-04T19:44:51.583Z,70.31
2023-02-04T19:47:42.471Z,71.09
2023-02-04T19:50:13.531Z,72.07
2023-02-04T19:52:48.485Z,73.06
2023-02-04T19:55:36.669Z,74.20
2023-02-04T19:58:25.331Z,74.47
2023-02-04T20:00:59.047Z,75.14
2023-02-04T20:03:31.347Z,74.92
2023-02-04T20:06:04.268Z,74.41
2023-02-04T20:08:44.553Z,74.24
2023-02-04T20:11:15.449Z,74.38
2023-02-04T20:13:43.486Z,74.30
2023-02-04T20:16:38.008Z,74.19
2023-02-04T20:19:21.155Z,74.28
2023-02-04T20:22:26.274Z,74.73
2023-02-04T20:24:59.320Z,75.78
2023-02-04T20:27:35.225Z,76.19
2023-02-04T20:30:11.432Z,76.46
2023-02-04T20:32:47.867Z,77.02
2023-02-04T20:35:21.432Z,77.48
2023-02-04T20:37:59.246Z,77.89
2023-02-04T20:40:33.828Z,77.89
2023-02-04T20:43:20.433Z,77.79
2023-02-04T20:45:53.790Z,78.27
2023-02-04T20:48:48.714Z,78.71
2023-02-04T20:51:23.392Z,78.82
2023-02-04T20:53:53.207Z,79.09
2023-02-04T20:56:28.564Z,79.16
2023-02-04T20:59:18.292Z,79.30
2023-02-04T21:01:50.304Z,79.46
2023-02-04T21:04:39.447Z,79.56
2023-02-04T21:07:17.102Z,79.47
2023-02-04T21:09:45.341Z,79.19
2023-02-04T21:12:13.111Z,79.01
2023-02-04T21:14:40.918Z,79.04
2023-02-04T21:17:08.940Z,79.21
2023-02-04T21:19:37.506Z,78.34
2023-02-04T21:22:05.443Z,77.30
2023-02-04T21:24:33.772Z,76.55
2023-02-04T21:27:01.655Z,76.26
2023-02-04T21:29:29.571Z,75.87
2023-02-04T21:31:57.362Z,75.65
2023-02-04T21:34:25.249Z,75.45
2023-02-04T21:36:53.103Z,75.26
2023-02-04T21:39:21.776Z,75.25
2023-02-04T21:42:09.451Z,75.22
2023-02-04T21:44:38.487Z,75.01
2023-02-04T21:47:06.295Z,74.76
2023-02-04T21:49:34.120Z,75.16
2023-02-04T21:52:01.933Z,75.48
2023-02-04T21:54:29.691Z,75.70
2023-02-04T21:57:02.048Z,75.90
2023-02-04T21:59:30.676Z,75.98
2023-02-04T22:01:58.699Z,76.12
2023-02-04T22:04:26.536Z,76.27
2023-02-04T22:06:56.107Z,76.39
2023-02-04T22:09:23.801Z,76.48
2023-02-04T22:11:51.517Z,76.75
2023-02-04T22:14:19.890Z,76.84
2023-02-04T22:16:47.958Z,76.87
2023-02-04T22:19:15.866Z,77.17
2023-02-04T22:21:43.747Z,77.27
2023-02-04T22:24:11.492Z,77.48
2023-02-04T22:26:39.208Z,77.55
2023-02-04T22:29:06.920Z,77.67
2023-02-04T22:31:35.144Z,77.74
2023-02-04T22:34:05.379Z,78.14
2023-02-04T22:36:33.092Z,78.54
2023-02-04T22:39:00.842Z,78.68
2023-02-04T22:41:28.647Z,78.44
2023-02-04T22:43:56.437Z,78.22
2023-02-04T22:46:24.216Z,78.29
2023-02-04T22:48:51.968Z,78.31
2023-02-04T22:51:19.875Z,78.42
2023-02-04T22:53:47.645Z,78.51
2023-02-04T22:56:15.640Z,78.54
2023-02-04T22:58:43.418Z,78.44
2023-02-04T23:01:11.163Z,78.33
2023-02-04T23:03:39.000Z,78.19
2023-02-04T23:06:07.074Z,78.30
2023-02-04T23:08:34.821Z,78.76
2023-02-04T23:11:02.675Z,79.01
2023-02-04T23:13:30.450Z,78.79
2023-02-04T23:15:58.390Z,78.20
2023-02-04T23:18:26.170Z,78.00
2023-02-04T23:20:53.968Z,78.27
2023-02-04T23:23:21.734Z,78.27
2023-02-04T23:25:49.768Z,78.25
2023-02-04T23:28:17.751Z,78.09
2023-02-04T23:30:45.670Z,77.93
2023-02-04T23:33:13.630Z,77.87
2023-02-04T23:35:41.458Z,77.72
2023-02-04T23:38:09.427Z,77.67
2023-02-04T23:40:37.171Z,77.72
2023-02-04T23:43:05.014Z,79.30
2023-02-04T23:45:33.482Z,79.59
2023-02-04T23:48:01.540Z,77.88
2023-02-04T23:50:29.278Z,76.71
2023-02-04T23:52:57.341Z,76.13
2023-02-04T23:55:25.447Z,75.71
2023-02-04T23:57:53.384Z,75.72
